Time;durP1;ratioP1;P1;durP2;ratioP2;P2;SDS_P1;SDS_P2;PMS_P1;PMS_P2;Temp;Humidity;BMP_temperature;BMP_pressure;BME280_temperature;BME280_humidity;BME280_pressure;Samples;Min_cycle;Max_cycle;Signal;HPM_P1;HPM_P2
2022/01/12 00:00:52;;;;;;;14.50;9.13;;;4.50;99.90;;;;;;5007923;28;20025;-43
2022/01/12 00:03:18;;;;;;;15.18;9.95;;;4.50;99.90;;;;;;5008987;28;20116;-43
2022/01/12 00:05:44;;;;;;;13.73;10.02;;;4.40;99.90;;;;;;5008946;28;20103;-43
2022/01/12 00:08:10;;;;;;;13.82;9.65;;;4.40;99.90;;;;;;5008664;28;20481;-42
2022/01/12 00:10:36;;;;;;;15.40;10.13;;;4.40;99.90;;;;;;5008933;28;20030;-43
2022/01/12 00:13:01;;;;;;;17.33;10.85;;;4.40;99.90;;;;;;5008673;28;20470;-42
2022/01/12 00:15:27;;;;;;;15.45;10.90;;;4.40;99.90;;;;;;5008726;28;20171;-43
2022/01/12 00:17:53;;;;;;;16.40;10.18;;;4.40;99.90;;;;;;5009015;28;20446;-43
2022/01/12 00:20:18;;;;;;;14.52;10.35;;;4.40;99.90;;;;;;5008962;28;20018;-43
2022/01/12 00:22:44;;;;;;;16.17;10.65;;;4.40;99.90;;;;;;5008207;28;20069;-42
2022/01/12 00:25:25;;;;;;;16.98;10.25;;;4.30;99.90;;;;;;5008442;28;20022;-43
2022/01/12 00:33:20;;;;;;;17.17;11.35;;;4.30;99.90;;;;;;5009050;28;20041;-43
2022/01/12 00:35:48;;;;;;;17.48;11.73;;;4.30;99.90;;;;;;5007689;28;20474;-42
2022/01/12 00:38:16;;;;;;;17.95;12.07;;;4.30;99.90;;;;;;5008023;28;20021;-43
2022/01/12 00:40:48;;;;;;;20.00;11.90;;;4.30;99.90;;;;;;5008209;28;20536;-43
2022/01/12 00:43:14;;;;;;;16.50;11.52;;;4.20;99.90;;;;;;5008534;28;20117;-44
2022/01/12 00:45:45;;;;;;;17.95;11.70;;;4.20;99.90;;;;;;5007430;28;20172;-44
2022/01/12 00:48:10;;;;;;;20.55;12.63;;;4.20;99.90;;;;;;4989107;28;20493;-44
2022/01/12 00:50:36;;;;;;;18.80;12.23;;;4.20;99.90;;;;;;5001826;28;20018;-43
2022/01/12 00:53:06;;;;;;;18.65;13.23;;;4.20;99.90;;;;;;5007922;28;20061;-43
2022/01/12 00:55:32;;;;;;;16.52;12.70;;;4.20;99.90;;;;;;5007640;28;20032;-43
2022/01/12 00:57:58;;;;;;;21.13;14.55;;;4.20;99.90;;;;;;5007561;28;20072;-43
2022/01/12 01:00:26;;;;;;;21.23;12.93;;;4.20;99.90;;;;;;5007996;28;20474;-43
2022/01/12 01:02:53;;;;;;;20.25;12.38;;;4.20;99.90;;;;;;5007724;28;20517;-42
2022/01/12 01:05:21;;;;;;;20.98;13.60;;;4.20;99.90;;;;;;5007582;28;20030;-43
2022/01/12 01:07:47;;;;;;;20.65;12.40;;;4.20;99.90;;;;;;5008114;28;20040;-44
2022/01/12 01:10:19;;;;;;;19.45;12.23;;;4.20;99.90;;;;;;5007811;28;20029;-44
2022/01/12 01:12:46;;;;;;;20.20;13.18;;;4.20;99.90;;;;;;4997803;28;20049;-43
2022/01/12 01:15:15;;;;;;;19.10;12.45;;;4.20;99.90;;;;;;5008909;28;20025;-42
2022/01/12 01:25:45;;;;;;;18.48;13.10;;;4.20;99.90;;;;;;5007636;28;20045;-42
2022/01/12 01:28:13;;;;;;;17.27;11.95;;;4.20;99.90;;;;;;5007749;28;20026;-43
2022/01/12 01:30:41;;;;;;;21.08;14.80;;;4.20;99.90;;;;;;5007636;28;20042;-44
2022/01/12 01:33:08;;;;;;;19.15;12.98;;;4.20;99.90;;;;;;5006951;28;20129;-43
2022/01/12 01:35:38;;;;;;;17.88;12.35;;;4.20;99.90;;;;;;5007960;28;20040;-43
2022/01/12 01:38:05;;;;;;;19.20;13.35;;;4.20;99.90;;;;;;5005000;28;20022;-42
2022/01/12 01:40:36;;;;;;;18.88;12.52;;;4.20;99.90;;;;;;5007808;28;20049;-43
2022/01/12 01:53:46;;;;;;;24.05;16.33;;;4.20;99.90;;;;;;5007231;28;20354;-43
2022/01/12 01:56:12;;;;;;;24.23;16.83;;;4.20;99.90;;;;;;5007436;28;20029;-43
2022/01/12 01:58:39;;;;;;;23.50;15.73;;;4.20;99.90;;;;;;5007682;28;20477;-43
2022/01/12 02:01:05;;;;;;;24.02;15.00;;;4.20;99.90;;;;;;5006944;28;20030;-43
2022/01/12 02:03:30;;;;;;;20.00;13.77;;;4.20;99.90;;;;;;5006472;28;20654;-42
2022/01/12 02:06:00;;;;;;;24.83;15.15;;;4.20;99.90;;;;;;5007754;28;20050;-44
2022/01/12 02:08:26;;;;;;;21.63;14.73;;;4.30;99.90;;;;;;5006300;28;20026;-43
2022/01/12 02:10:56;;;;;;;21.98;15.23;;;4.20;99.90;;;;;;5007038;28;20026;-43
2022/01/12 02:13:25;;;;;;;24.85;15.73;;;4.30;99.90;;;;;;5007793;28;20022;-42
2022/01/12 02:15:52;;;;;;;23.73;15.25;;;4.30;99.90;;;;;;5006193;28;20041;-43
2022/01/12 02:40:45;;;;;;;22.50;15.07;;;4.30;99.90;;;;;;5005539;28;20080;-43
2022/01/12 02:43:28;;;;;;;24.80;15.77;;;4.30;99.90;;;;;;5007190;28;20108;-43
2022/01/12 02:50:41;;;;;;;22.45;14.50;;;4.30;99.90;;;;;;5010540;28;20180;-43
2022/01/12 02:53:54;;;;;;;26.45;16.08;;;4.30;99.90;;;;;;5010042;28;20132;-43
2022/01/12 02:56:29;;;;;;;26.80;17.52;;;4.30;99.90;;;;;;5010776;28;20468;-42
2022/01/12 02:58:59;;;;;;;26.30;17.27;;;4.40;99.90;;;;;;5009693;28;20053;-42
2022/01/12 03:04:03;;;;;;;25.27;16.48;;;4.40;99.90;;;;;;5010216;28;20034;-43
2022/01/12 03:06:33;;;;;;;29.10;17.23;;;4.40;99.90;;;;;;4998866;28;20124;-43
2022/01/12 03:08:59;;;;;;;31.38;19.63;;;4.40;99.90;;;;;;5010410;28;20030;-43
2022/01/12 03:11:27;;;;;;;31.92;20.45;;;4.30;99.90;;;;;;5009295;28;20462;-43
2022/01/12 03:13:53;;;;;;;29.52;20.52;;;4.30;99.90;;;;;;5010100;28;20030;-42
2022/01/12 03:16:22;;;;;;;34.30;20.85;;;4.30;99.90;;;;;;5010437;28;20026;-43
2022/01/12 03:18:51;;;;;;;32.05;20.70;;;4.30;99.90;;;;;;5009582;28;20033;-45
2022/01/12 03:21:21;;;;;;;31.88;19.83;;;4.30;99.90;;;;;;5010015;28;20115;-44
2022/01/12 03:23:47;;;;;;;33.30;20.08;;;4.30;99.90;;;;;;5009808;28;20385;-43
2022/01/12 03:26:13;;;;;;;30.02;19.60;;;4.40;99.90;;;;;;5009183;28;20636;-43
2022/01/12 03:28:40;;;;;;;27.77;17.55;;;4.40;99.90;;;;;;5009659;28;20040;-42
2022/01/12 03:38:50;;;;;;;29.40;18.73;;;4.40;99.90;;;;;;5010243;28;20038;-44
2022/01/12 03:41:19;;;;;;;31.05;18.48;;;4.40;99.90;;;;;;5009117;28;20014;-43
2022/01/12 03:43:45;;;;;;;29.83;18.63;;;4.40;99.90;;;;;;5009438;28;20060;-43
2022/01/12 03:46:13;;;;;;;27.30;17.33;;;4.40;99.90;;;;;;5009741;28;20096;-43
2022/01/12 03:48:39;;;;;;;29.20;18.55;;;4.40;99.90;;;;;;5008662;28;20069;-43
2022/01/12 03:51:04;;;;;;;31.42;19.50;;;4.40;99.90;;;;;;5009359;28;20060;-44
2022/01/12 03:53:30;;;;;;;26.02;16.52;;;4.40;99.90;;;;;;5008963;28;20132;-42
2022/01/12 03:55:56;;;;;;;30.58;19.50;;;4.40;99.90;;;;;;5009164;28;20168;-43
2022/01/12 03:58:21;;;;;;;29.95;18.92;;;4.40;99.90;;;;;;5009058;28;20060;-44
2022/01/12 04:00:47;;;;;;;27.35;18.33;;;4.40;99.90;;;;;;5008095;28;20037;-43
2022/01/12 04:03:14;;;;;;;25.38;17.63;;;4.40;99.90;;;;;;5009705;28;20026;-43
2022/01/12 04:08:18;;;;;;;30.08;18.95;;;4.40;99.90;;;;;;5008945;28;20038;-45
2022/01/12 04:08:25;;;;;;;28.10;17.63;;;4.40;99.90;;;;;;5008507;28;20038;-44
2022/01/12 04:10:54;;;;;;;26.55;17.65;;;4.40;99.90;;;;;;5008739;28;20022;-43
2022/01/12 04:13:24;;;;;;;29.10;18.27;;;4.40;99.90;;;;;;5009498;28;20128;-44
2022/01/12 04:15:53;;;;;;;27.73;18.17;;;4.40;99.90;;;;;;5008513;28;20034;-44
2022/01/12 04:18:19;;;;;;;27.00;17.95;;;4.40;99.90;;;;;;5007861;28;20029;-42
2022/01/12 04:20:46;;;;;;;29.00;18.50;;;4.40;99.90;;;;;;5009209;28;20025;-43
2022/01/12 04:23:22;;;;;;;30.60;19.63;;;4.40;99.90;;;;;;5009235;28;20026;-43
2022/01/12 04:25:59;;;;;;;30.40;19.38;;;4.40;99.90;;;;;;5009166;28;20030;-42
2022/01/12 04:28:28;;;;;;;25.95;17.58;;;4.40;99.90;;;;;;5009232;28;20049;-44
2022/01/12 04:30:55;;;;;;;28.95;18.88;;;4.40;99.90;;;;;;5008374;28;20363;-42
2022/01/12 04:33:22;;;;;;;26.73;18.38;;;4.50;99.90;;;;;;5008639;28;20462;-43
2022/01/12 04:35:52;;;;;;;28.55;18.55;;;4.40;99.90;;;;;;5007776;28;20808;-43
2022/01/12 04:38:22;;;;;;;28.27;19.27;;;4.40;99.90;;;;;;5009226;28;20029;-43
2022/01/12 04:40:51;;;;;;;32.85;20.42;;;4.40;99.90;;;;;;5008237;28;20029;-42
2022/01/12 04:43:18;;;;;;;23.10;15.82;;;4.40;99.90;;;;;;5007902;28;20037;-42
2022/01/12 04:50:49;;;;;;;27.52;17.60;;;4.40;99.90;;;;;;5008164;28;20041;-44
2022/01/12 04:53:15;;;;;;;24.10;17.08;;;4.50;99.90;;;;;;5007833;28;20038;-42
2022/01/12 04:55:42;;;;;;;26.15;16.73;;;4.50;99.90;;;;;;5008466;28;20028;-43
2022/01/12 04:58:08;;;;;;;30.00;18.83;;;4.50;99.90;;;;;;5007372;28;20081;-44
2022/01/12 05:00:36;;;;;;;26.00;17.88;;;4.50;99.90;;;;;;5008380;28;20029;-42
2022/01/12 05:13:47;;;;;;;27.00;17.15;;;4.50;99.90;;;;;;5008208;28;20580;-43
2022/01/12 05:16:13;;;;;;;27.92;17.77;;;4.50;99.90;;;;;;5008471;28;20025;-43
2022/01/12 05:18:41;;;;;;;28.65;18.67;;;4.50;99.90;;;;;;5006920;28;20089;-43
2022/01/12 05:21:07;;;;;;;28.88;18.30;;;4.50;99.90;;;;;;5008179;28;20025;-44
2022/01/12 05:23:33;;;;;;;25.83;17.95;;;4.50;99.90;;;;;;5007955;28;20774;-43
2022/01/12 05:25:59;;;;;;;26.05;17.60;;;4.60;99.90;;;;;;5007446;28;20492;-44
2022/01/12 05:28:25;;;;;;;27.50;17.73;;;4.50;99.90;;;;;;5007867;28;20049;-43
2022/01/12 05:30:53;;;;;;;26.50;17.35;;;4.60;99.90;;;;;;5007546;28;20033;-44
2022/01/12 05:33:20;;;;;;;28.92;17.48;;;4.60;99.90;;;;;;5007737;28;20033;-43
2022/01/12 05:35:46;;;;;;;28.50;18.02;;;4.60;99.90;;;;;;5007263;28;20087;-42
2022/01/12 05:38:13;;;;;;;24.70;16.52;;;4.60;99.90;;;;;;5008277;28;20060;-42
2022/01/12 05:40:47;;;;;;;28.63;18.45;;;4.60;99.90;;;;;;5007082;28;20032;-43
2022/01/12 05:43:14;;;;;;;25.92;17.05;;;4.60;99.90;;;;;;5008197;28;20081;-42
2022/01/12 05:45:44;;;;;;;29.83;17.98;;;4.50;99.90;;;;;;5007366;28;20026;-44
2022/01/12 05:50:37;;;;;;;28.85;19.05;;;4.60;99.90;;;;;;5001520;28;20034;-43
2022/01/12 05:53:03;;;;;;;26.45;16.98;;;4.60;99.90;;;;;;5007208;28;20058;-42
2022/01/12 05:55:28;;;;;;;33.30;19.80;;;4.60;99.90;;;;;;5006691;28;20037;-44
2022/01/12 05:57:54;;;;;;;32.20;19.88;;;4.60;99.90;;;;;;5007247;28;20520;-43
2022/01/12 06:00:23;;;;;;;34.00;20.02;;;4.60;99.90;;;;;;5006850;28;20060;-43
2022/01/12 06:02:49;;;;;;;34.22;20.77;;;4.60;99.90;;;;;;5007766;28;20044;-43
2022/01/12 06:05:15;;;;;;;33.03;19.80;;;4.60;99.90;;;;;;5007683;28;20105;-43
2022/01/12 06:07:41;;;;;;;30.08;18.92;;;4.60;99.90;;;;;;5006602;28;20450;-43
2022/01/12 06:10:07;;;;;;;33.13;18.95;;;4.60;99.90;;;;;;5007582;28;20101;-44
2022/01/12 06:12:33;;;;;;;30.45;19.42;;;4.60;99.90;;;;;;5007224;28;20561;-44
2022/01/12 06:14:59;;;;;;;25.20;16.70;;;4.60;99.90;;;;;;5006632;28;20080;-43
2022/01/12 06:17:24;;;;;;;29.23;17.42;;;4.60;99.90;;;;;;5007256;28;20029;-44
2022/01/12 06:19:49;;;;;;;34.70;23.25;;;4.60;99.90;;;;;;5007381;28;20022;-43
2022/01/12 06:22:15;;;;;;;38.50;23.10;;;4.60;99.90;;;;;;5010746;28;20026;-43
2022/01/12 06:24:40;;;;;;;39.25;23.17;;;4.50;99.90;;;;;;5011410;28;20018;-44
2022/01/12 06:27:09;;;;;;;34.50;22.10;;;4.50;99.90;;;;;;5010905;28;20061;-43
2022/01/12 06:29:41;;;;;;;34.53;20.63;;;4.60;99.90;;;;;;4991331;28;20026;-43
2022/01/12 06:32:08;;;;;;;32.58;20.23;;;4.60;99.90;;;;;;5006106;28;20057;-43
2022/01/12 06:34:33;;;;;;;30.77;17.63;;;4.50;99.90;;;;;;5011181;28;20030;-43
2022/01/12 06:36:59;;;;;;;39.63;22.40;;;4.60;99.90;;;;;;5010248;28;20091;-42
2022/01/12 06:39:25;;;;;;;39.97;21.88;;;4.60;99.90;;;;;;5010832;28;20108;-43
2022/01/12 06:41:52;;;;;;;36.35;20.63;;;4.60;99.90;;;;;;5010860;28;20029;-42
2022/01/12 06:44:20;;;;;;;35.65;20.20;;;4.60;99.90;;;;;;5010745;28;20205;-43
2022/01/12 06:46:47;;;;;;;33.72;18.63;;;4.60;99.90;;;;;;5010078;28;20524;-43
2022/01/12 06:49:15;;;;;;;37.60;19.60;;;4.60;99.90;;;;;;5011314;28;20108;-44
2022/01/12 06:51:42;;;;;;;40.80;19.92;;;4.70;99.90;;;;;;5009981;28;20101;-42
2022/01/12 06:54:07;;;;;;;33.10;19.25;;;4.70;99.90;;;;;;5004221;28;20050;-44
2022/01/12 06:56:33;;;;;;;39.25;18.05;;;4.70;99.90;;;;;;4993199;28;20025;-43
2022/01/12 06:58:59;;;;;;;34.80;18.63;;;4.70;99.90;;;;;;5007428;28;20022;-42
2022/01/12 07:01:26;;;;;;;44.60;20.38;;;4.70;99.90;;;;;;5009425;28;20060;-42
2022/01/12 07:03:51;;;;;;;40.20;18.77;;;4.80;99.90;;;;;;5006376;28;20013;-44
2022/01/12 07:06:18;;;;;;;32.22;17.15;;;4.80;99.90;;;;;;5010460;28;20100;-44
2022/01/12 07:08:44;;;;;;;32.20;17.42;;;4.80;99.90;;;;;;5008852;28;20076;-42
2022/01/12 07:11:10;;;;;;;29.77;18.15;;;4.80;99.90;;;;;;5009008;28;20029;-43
2022/01/12 07:13:35;;;;;;;36.63;19.60;;;4.80;99.90;;;;;;5010059;28;20040;-42
2022/01/12 07:16:01;;;;;;;43.30;19.13;;;4.80;99.90;;;;;;5009431;28;20030;-43
2022/01/12 07:18:29;;;;;;;35.70;19.42;;;4.80;99.90;;;;;;5008274;28;20080;-43
2022/01/12 07:20:58;;;;;;;32.63;18.95;;;4.80;99.90;;;;;;5009366;28;20061;-43
2022/01/12 07:23:24;;;;;;;34.40;18.80;;;4.80;99.90;;;;;;5008834;28;20033;-43
2022/01/12 07:25:50;;;;;;;37.63;19.23;;;4.80;99.90;;;;;;5009616;28;20069;-44
2022/01/12 07:28:16;;;;;;;35.28;19.02;;;4.80;99.90;;;;;;5010347;28;20049;-43
2022/01/12 07:30:42;;;;;;;36.45;17.27;;;4.80;99.90;;;;;;5009773;28;20088;-43
2022/01/12 07:33:11;;;;;;;35.65;17.65;;;4.90;99.90;;;;;;5007827;28;20077;-44
2022/01/12 07:35:37;;;;;;;34.47;17.92;;;4.80;99.90;;;;;;5010167;28;20492;-42
2022/01/12 07:38:03;;;;;;;33.55;17.45;;;4.80;99.90;;;;;;5009628;28;20033;-43
2022/01/12 07:40:29;;;;;;;39.88;18.88;;;4.80;99.90;;;;;;5009110;28;20050;-45
2022/01/12 07:42:55;;;;;;;37.22;18.77;;;4.80;99.90;;;;;;5009664;28;20097;-43
2022/01/12 07:45:21;;;;;;;35.70;19.08;;;4.80;99.90;;;;;;5004824;28;20121;-45
2022/01/12 07:47:46;;;;;;;35.78;18.27;;;4.80;99.90;;;;;;5008669;28;20080;-43
2022/01/12 07:50:12;;;;;;;35.28;17.15;;;4.80;99.90;;;;;;5009444;28;20033;-42
2022/01/12 07:52:38;;;;;;;33.75;17.25;;;4.90;99.90;;;;;;5006730;28;20513;-44
2022/01/12 07:55:05;;;;;;;35.47;16.83;;;4.90;99.90;;;;;;5009238;28;20029;-43
2022/01/12 07:57:30;;;;;;;36.13;18.05;;;4.80;99.90;;;;;;4989451;28;20023;-43
2022/01/12 07:59:56;;;;;;;35.72;18.17;;;4.80;99.90;;;;;;5003015;28;20076;-44
2022/01/12 08:02:22;;;;;;;35.60;17.45;;;4.80;99.90;;;;;;5010178;28;20517;-44
2022/01/12 08:04:48;;;;;;;40.40;18.23;;;4.80;99.90;;;;;;5008742;28;20021;-44
2022/01/12 08:07:14;;;;;;;34.25;17.50;;;4.80;99.90;;;;;;5008727;28;20042;-44
2022/01/12 08:09:43;;;;;;;43.38;20.88;;;4.80;99.90;;;;;;5005780;28;20014;-44
2022/01/12 08:12:09;;;;;;;43.53;20.17;;;4.80;99.90;;;;;;5007606;28;20030;-43
2022/01/12 08:14:35;;;;;;;37.42;17.80;;;4.80;99.90;;;;;;4999284;28;20409;-44
2022/01/12 08:17:01;;;;;;;40.35;19.00;;;4.80;99.90;;;;;;5007916;28;20029;-43
2022/01/12 08:19:28;;;;;;;43.70;18.65;;;4.80;99.90;;;;;;5007989;28;20021;-43
2022/01/12 08:21:54;;;;;;;39.17;17.02;;;4.90;99.90;;;;;;5007077;28;20121;-43
2022/01/12 08:24:20;;;;;;;36.45;16.98;;;4.90;99.90;;;;;;5008338;28;20060;-43
2022/01/12 08:26:47;;;;;;;41.63;20.13;;;4.90;99.90;;;;;;5007452;28;20061;-45
2022/01/12 08:29:15;;;;;;;41.75;20.17;;;4.90;99.90;;;;;;5008227;28;20026;-43
2022/01/12 08:31:42;;;;;;;41.38;19.63;;;4.80;99.90;;;;;;5007291;28;20120;-43
2022/01/12 08:34:08;;;;;;;45.00;20.48;;;4.90;99.90;;;;;;5007629;28;20025;-41
2022/01/12 08:36:34;;;;;;;40.92;20.33;;;4.80;99.90;;;;;;5006914;28;20052;-44
2022/01/12 08:39:02;;;;;;;47.65;20.48;;;4.80;99.90;;;;;;5007937;28;20485;-42
2022/01/12 08:41:27;;;;;;;43.00;20.85;;;4.80;99.90;;;;;;5007699;28;20033;-44
2022/01/12 08:43:53;;;;;;;46.50;19.55;;;4.90;99.90;;;;;;5005042;28;20022;-43
2022/01/12 08:46:18;;;;;;;35.50;18.25;;;4.90;99.90;;;;;;5006922;28;20633;-43
2022/01/12 08:48:44;;;;;;;46.75;18.25;;;4.90;99.90;;;;;;5007400;28;20109;-44
2022/01/12 08:51:09;;;;;;;39.38;18.23;;;4.90;99.90;;;;;;5006510;28;20474;-44
2022/01/12 08:53:35;;;;;;;34.75;16.98;;;4.90;99.90;;;;;;5007182;28;20049;-43
2022/01/12 08:56:01;;;;;;;37.25;16.88;;;5.00;99.90;;;;;;5006281;28;20018;-43
2022/01/12 08:58:26;;;;;;;36.83;16.27;;;5.00;99.90;;;;;;5007267;28;20018;-43
2022/01/12 09:00:55;;;;;;;31.13;16.58;;;5.00;99.90;;;;;;5007263;28;20098;-45
2022/01/12 09:03:22;;;;;;;37.53;17.35;;;5.10;99.90;;;;;;5007176;28;20025;-44
2022/01/12 09:05:49;;;;;;;38.50;18.15;;;5.10;99.90;;;;;;5006790;28;20136;-43
2022/01/12 09:08:15;;;;;;;41.15;20.10;;;5.10;99.90;;;;;;5007780;28;20084;-43
2022/01/12 09:10:40;;;;;;;41.20;21.80;;;5.10;99.90;;;;;;5005787;28;20026;-44
2022/01/12 09:13:06;;;;;;;49.90;23.33;;;5.10;99.90;;;;;;5006927;28;20026;-42
2022/01/12 09:15:31;;;;;;;46.08;23.52;;;5.00;99.90;;;;;;5007105;28;20512;-44
2022/01/12 09:17:57;;;;;;;48.72;24.92;;;4.90;99.90;;;;;;5006042;28;20540;-44
2022/01/12 09:20:24;;;;;;;44.33;21.45;;;4.90;99.90;;;;;;5006916;28;20026;-46
2022/01/12 09:22:50;;;;;;;41.75;20.88;;;4.90;99.90;;;;;;5004819;28;20088;-44
2022/01/12 09:25:16;;;;;;;47.28;21.25;;;4.90;99.90;;;;;;5006473;28;20061;-44
2022/01/12 09:27:42;;;;;;;39.60;19.30;;;4.90;99.90;;;;;;5005521;28;20464;-44
2022/01/12 09:30:11;;;;;;;43.08;19.23;;;4.90;99.90;;;;;;4996370;28;20557;-44
2022/01/12 09:32:37;;;;;;;42.15;19.45;;;5.00;99.90;;;;;;4996661;28;20087;-43
2022/01/12 09:35:03;;;;;;;36.58;20.05;;;5.00;99.90;;;;;;5006239;28;20498;-44
2022/01/12 09:37:29;;;;;;;40.53;19.38;;;5.00;99.90;;;;;;5006678;28;20026;-43
2022/01/12 09:39:55;;;;;;;40.72;18.83;;;5.10;99.90;;;;;;4999714;28;20073;-44
2022/01/12 09:42:21;;;;;;;39.05;19.27;;;5.10;99.90;;;;;;4992708;28;20018;-46
2022/01/12 09:44:48;;;;;;;42.90;21.65;;;5.10;99.90;;;;;;5006180;28;20018;-43
2022/01/12 09:47:15;;;;;;;43.10;20.80;;;5.10;99.90;;;;;;5005451;28;20060;-44
2022/01/12 09:49:45;;;;;;;40.55;21.20;;;5.10;99.90;;;;;;5006417;28;20466;-42
2022/01/12 09:52:12;;;;;;;45.10;19.70;;;5.00;99.90;;;;;;5006929;28;20030;-43
2022/01/12 09:54:38;;;;;;;39.25;19.73;;;5.00;99.90;;;;;;5005276;28;20038;-44
2022/01/12 09:57:04;;;;;;;39.95;19.08;;;5.10;99.90;;;;;;5006210;28;20132;-43
2022/01/12 09:59:30;;;;;;;40.92;17.60;;;5.10;99.90;;;;;;5005310;28;20398;-42
2022/01/12 10:01:58;;;;;;;38.45;18.30;;;5.10;99.90;;;;;;5006447;28;20121;-43
2022/01/12 10:04:28;;;;;;;33.08;17.02;;;5.20;99.90;;;;;;5006173;28;20044;-43
2022/01/12 10:07:01;;;;;;;35.03;16.83;;;5.20;99.90;;;;;;5006325;28;20465;-42
2022/01/12 10:09:45;;;;;;;34.22;17.23;;;5.30;99.90;;;;;;5005700;28;20032;-43
2022/01/12 10:12:13;;;;;;;37.17;17.58;;;5.30;99.90;;;;;;5001063;28;20106;-44
2022/01/12 10:14:42;;;;;;;46.63;20.98;;;5.30;99.90;;;;;;5005229;28;20026;-43
2022/01/12 10:17:09;;;;;;;38.88;18.92;;;5.30;99.90;;;;;;5006323;28;20034;-43
2022/01/12 10:19:35;;;;;;;37.35;17.88;;;5.30;99.90;;;;;;5005867;28;20049;-43
2022/01/12 10:22:04;;;;;;;41.47;19.42;;;5.30;99.90;;;;;;5006099;28;20018;-43
2022/01/12 10:24:30;;;;;;;33.15;17.73;;;5.30;99.90;;;;;;5005593;28;20080;-43
2022/01/12 10:26:57;;;;;;;38.28;17.85;;;5.40;99.90;;;;;;5006158;28;20034;-43
2022/01/12 10:29:26;;;;;;;34.67;17.85;;;5.50;99.90;;;;;;5005840;28;20478;-44
2022/01/12 10:32:00;;;;;;;38.45;19.25;;;5.50;99.90;;;;;;5005778;28;20172;-44
2022/01/12 10:34:38;;;;;;;37.55;18.17;;;5.50;99.90;;;;;;5005541;28;20026;-43
2022/01/12 10:37:12;;;;;;;38.15;17.75;;;5.60;99.90;;;;;;5006428;28;20022;-44
2022/01/12 10:39:40;;;;;;;37.95;19.33;;;5.60;99.90;;;;;;5005483;28;20014;-43
2022/01/12 10:42:11;;;;;;;36.92;19.17;;;5.70;99.90;;;;;;5005368;28;20038;-44
2022/01/12 10:44:40;;;;;;;35.55;18.48;;;5.60;99.90;;;;;;5005994;28;20068;-44
2022/01/12 10:47:22;;;;;;;40.42;19.40;;;5.70;99.90;;;;;;5005403;28;20512;-42
2022/01/12 10:49:54;;;;;;;38.08;19.80;;;5.70;99.90;;;;;;5004636;28;20026;-44
2022/01/12 10:52:21;;;;;;;44.20;20.52;;;5.80;99.90;;;;;;5006078;28;20041;-43
2022/01/12 10:54:52;;;;;;;36.22;18.27;;;5.80;99.90;;;;;;5005421;28;20048;-43
2022/01/12 10:57:44;;;;;;;35.92;17.75;;;5.80;99.90;;;;;;5005538;28;20045;-42
2022/01/12 11:00:19;;;;;;;35.05;16.75;;;5.90;99.90;;;;;;5005618;28;20125;-43
2022/01/12 11:02:54;;;;;;;33.05;16.27;;;5.90;99.90;;;;;;5005482;28;20030;-43
2022/01/12 11:05:22;;;;;;;31.33;14.95;;;5.90;99.90;;;;;;5005836;28;20109;-42
2022/01/12 11:07:48;;;;;;;31.85;15.90;;;5.90;99.90;;;;;;5007047;28;20034;-43
2022/01/12 11:10:15;;;;;;;30.42;14.98;;;6.00;99.90;;;;;;5007848;28;20140;-44
2022/01/12 11:12:41;;;;;;;34.78;17.75;;;6.00;99.90;;;;;;5008253;28;20030;-43
2022/01/12 11:15:09;;;;;;;38.90;18.10;;;6.00;99.90;;;;;;5009027;28;20026;-43
2022/01/12 11:17:34;;;;;;;34.10;17.10;;;5.80;99.90;;;;;;5008109;28;20032;-32
2022/01/12 11:20:08;;;;;;;33.42;16.20;;;5.70;99.90;;;;;;5009258;28;20030;-32
2022/01/12 11:22:59;;;;;;;30.70;14.93;;;5.70;99.90;;;;;;5008666;28;20025;-33
2022/01/12 11:25:43;;;;;;;32.03;14.25;;;5.70;99.90;;;;;;5007225;28;20060;-37
2022/01/12 11:28:26;;;;;;;33.92;14.90;;;5.70;99.90;;;;;;5024359;28;20124;-32
2022/01/12 11:30:51;;;;;;;35.53;16.05;;;5.80;99.90;;;;;;5008364;28;20026;-33
2022/01/12 11:33:20;;;;;;;26.95;14.05;;;5.80;99.90;;;;;;5009400;28;20030;-43
2022/01/12 11:35:51;;;;;;;28.85;14.65;;;5.90;99.90;;;;;;5008099;28;20025;-43
2022/01/12 11:38:26;;;;;;;31.95;14.10;;;5.90;99.90;;;;;;5008763;28;20079;-43
2022/01/12 11:40:55;;;;;;;29.48;14.80;;;6.00;99.90;;;;;;5008197;28;20651;-43
2022/01/12 11:43:31;;;;;;;29.67;14.80;;;6.00;99.90;;;;;;5009267;28;20022;-44
2022/01/12 11:46:21;;;;;;;29.80;14.90;;;6.10;99.90;;;;;;5007694;28;20485;-43
2022/01/12 11:48:53;;;;;;;28.83;13.93;;;6.10;99.90;;;;;;5006857;28;20050;-43
2022/01/12 11:51:35;;;;;;;27.83;13.82;;;6.10;99.90;;;;;;5008873;28;20034;-43
2022/01/12 11:54:18;;;;;;;27.67;13.30;;;6.10;99.90;;;;;;5008002;28;20038;-43
2022/01/12 11:56:53;;;;;;;;;;;6.20;99.90;;;;;;5008251;28;20030;-43
2022/01/12 11:59:20;;;;;;;32.58;15.20;;;6.30;99.90;;;;;;4998031;28;19992;-42
2022/01/12 12:01:52;;;;;;;31.75;14.55;;;6.30;99.90;;;;;;5007422;28;20378;-43
2022/01/12 12:04:28;;;;;;;27.33;14.18;;;6.30;99.90;;;;;;5007805;28;20435;-44
2022/01/12 12:07:11;;;;;;;28.90;14.57;;;6.30;99.90;;;;;;5007562;28;20128;-42
2022/01/12 12:09:54;;;;;;;27.42;13.88;;;6.30;99.90;;;;;;4996947;28;20022;-43
2022/01/12 12:12:22;;;;;;;30.42;13.45;;;6.30;99.90;;;;;;5008389;28;20033;-43
2022/01/12 12:14:50;;;;;;;26.00;13.02;;;6.40;99.90;;;;;;4996266;28;20481;-42
2022/01/12 12:17:17;;;;;;;27.73;13.30;;;6.40;99.90;;;;;;5007883;28;20522;-43
2022/01/12 12:19:43;;;;;;;26.65;13.48;;;6.40;99.90;;;;;;5007614;28;20026;-43
2022/01/12 12:22:20;;;;;;;28.90;14.00;;;6.40;99.90;;;;;;5007371;28;20030;-42
2022/01/12 12:25:14;;;;;;;28.08;12.90;;;6.40;99.90;;;;;;5004464;28;20034;-44
2022/01/12 12:27:42;;;;;;;27.70;13.48;;;6.50;99.90;;;;;;5006433;28;20561;-44
2022/01/12 12:30:13;;;;;;;33.78;15.82;;;6.50;99.90;;;;;;5007803;28;20029;-43
2022/01/12 12:32:41;;;;;;;26.48;14.75;;;6.50;99.90;;;;;;5007668;28;20080;-42
2022/01/12 12:35:30;;;;;;;30.33;15.02;;;6.50;99.90;;;;;;5006954;28;20149;-42
2022/01/12 12:38:02;;;;;;;26.98;14.52;;;6.50;99.90;;;;;;5007127;28;20084;-43
2022/01/12 12:40:30;;;;;;;28.65;14.48;;;6.50;99.90;;;;;;5005135;28;20026;-43
2022/01/12 12:43:25;;;;;;;30.25;14.18;;;6.50;99.90;;;;;;5007059;28;20121;-42
2022/01/12 12:45:59;;;;;;;27.48;13.95;;;6.60;99.90;;;;;;5007282;28;20030;-44
2022/01/12 12:48:30;;;;;;;29.75;14.35;;;6.60;99.90;;;;;;5006794;28;20017;-43
2022/01/12 12:50:58;;;;;;;27.27;13.60;;;6.60;99.90;;;;;;5007037;28;20034;-44
2022/01/12 12:53:33;;;;;;;30.77;14.13;;;6.70;99.90;;;;;;5006833;28;20057;-43
2022/01/12 12:55:59;;;;;;;30.92;13.90;;;6.60;99.90;;;;;;5006130;28;20208;-43
2022/01/12 12:58:26;;;;;;;27.50;14.77;;;6.70;99.90;;;;;;5007333;28;20025;-43
2022/01/12 13:00:52;;;;;;;28.20;14.00;;;6.60;99.90;;;;;;5003489;28;20113;-42
2022/01/12 13:03:18;;;;;;;32.00;15.65;;;6.60;99.90;;;;;;5006807;28;20160;-42
2022/01/12 13:05:44;;;;;;;29.58;15.60;;;6.50;99.90;;;;;;5006742;28;20368;-43
2022/01/12 13:08:10;;;;;;;29.42;14.90;;;6.40;99.90;;;;;;5007106;28;20470;-43
2022/01/12 13:10:37;;;;;;;28.90;14.57;;;6.30;99.90;;;;;;5006282;28;20534;-43
2022/01/12 13:13:08;;;;;;;25.40;14.60;;;6.30;99.90;;;;;;5006696;28;20112;-44
2022/01/12 13:15:39;;;;;;;26.05;13.65;;;6.30;99.90;;;;;;5005752;28;20037;-47
2022/01/12 13:18:07;;;;;;;28.83;14.52;;;6.30;99.90;;;;;;5006243;28;20021;-44
2022/01/12 13:23:30;;;;;;;27.27;13.38;;;6.30;99.90;;;;;;4986885;28;20045;-44
2022/01/12 13:26:01;;;;;;;23.85;12.43;;;6.30;99.90;;;;;;5001524;28;20037;-44
2022/01/12 13:28:27;;;;;;;28.52;14.10;;;6.30;99.90;;;;;;5006710;28;20022;-44
2022/01/12 13:30:59;;;;;;;31.75;15.35;;;6.30;99.90;;;;;;5005588;28;20028;-44
2022/01/12 13:33:34;;;;;;;26.55;15.25;;;6.40;99.90;;;;;;5006254;28;20120;-44
2022/01/12 13:36:20;;;;;;;27.42;14.63;;;6.30;99.90;;;;;;5006398;28;20478;-43
2022/01/12 13:38:57;;;;;;;25.80;14.50;;;6.40;99.90;;;;;;5006095;28;20034;-43
2022/01/12 13:41:27;;;;;;;25.63;12.35;;;6.40;99.90;;;;;;5010133;28;20053;-43
2022/01/12 13:43:58;;;;;;;32.28;15.13;;;6.30;99.90;;;;;;5007929;28;20783;-44
2022/01/12 13:46:33;;;;;;;28.90;14.45;;;6.30;99.90;;;;;;5005591;28;20146;-43
2022/01/12 13:51:43;;;;;;;30.05;15.55;;;6.30;99.90;;;;;;5005488;28;20026;-43
2022/01/12 13:54:10;;;;;;;32.72;15.43;;;6.30;99.90;;;;;;5005899;28;20833;-44
2022/01/12 13:56:50;;;;;;;33.83;15.45;;;6.30;99.90;;;;;;5006191;28;20464;-45
2022/01/12 13:59:18;;;;;;;28.48;14.13;;;6.30;99.90;;;;;;5005889;28;20487;-42
2022/01/12 14:01:44;;;;;;;31.13;14.82;;;6.30;99.90;;;;;;5006090;28;20042;-41
2022/01/12 14:04:17;;;;;;;29.92;15.23;;;6.30;99.90;;;;;;5003770;28;20022;-44
2022/01/12 14:06:46;;;;;;;26.83;14.25;;;6.30;99.90;;;;;;4995869;28;20548;-43
2022/01/12 14:09:29;;;;;;;31.27;15.05;;;6.30;99.90;;;;;;5000980;28;20076;-44
2022/01/12 14:11:57;;;;;;;29.02;15.07;;;6.30;99.90;;;;;;5006568;28;20010;-42